Time;durP1;ratioP1;P1;durP2;ratioP2;P2;SDS_P1;SDS_P2;PMS_P1;PMS_P2;Temp;Humidity;BMP_temperature;BMP_pressure;BME280_temperature;BME280_humidity;BME280_pressure;Samples;Min_cycle;Max_cycle;Signal;HPM_P1;HPM_P2
2022/01/03 00:02:25;;;;;;;13.90;2.72;;;;;;;9.55;100.00;100984.88;5053083;28;20060;-55
2022/01/03 00:04:53;;;;;;;15.23;3.08;;;;;;;9.58;100.00;100989.94;5053156;28;20053;-55
2022/01/03 00:07:21;;;;;;;13.38;2.03;;;;;;;9.57;100.00;100996.13;5052535;28;20045;-55
2022/01/03 00:09:49;;;;;;;11.25;1.80;;;;;;;9.53;100.00;100999.84;5050220;28;20496;-56
2022/01/03 00:12:20;;;;;;;11.07;1.92;;;;;;;9.56;100.00;100999.69;5050521;28;20083;-55
2022/01/03 00:14:50;;;;;;;12.68;2.40;;;;;;;9.52;100.00;100996.41;5052936;28;20041;-54
2022/01/03 00:17:18;;;;;;;13.68;2.08;;;;;;;9.57;100.00;100998.75;5052917;28;20558;-54
2022/01/03 00:19:46;;;;;;;14.73;2.50;;;;;;;9.56;100.00;101011.03;5053029;28;20052;-54
2022/01/03 00:22:18;;;;;;;11.95;2.15;;;;;;;9.55;100.00;101016.38;5053043;28;20452;-56
2022/01/03 00:24:57;;;;;;;13.50;1.77;;;;;;;9.56;100.00;101024.16;5052891;28;20052;-53
2022/01/03 00:27:35;;;;;;;13.27;2.05;;;;;;;9.53;100.00;101012.97;5052463;28;20442;-54
2022/01/03 00:30:06;;;;;;;13.95;2.13;;;;;;;9.54;100.00;101010.25;5051693;28;20052;-53
2022/01/03 00:32:38;;;;;;;17.17;2.30;;;;;;;9.51;100.00;101020.94;5048778;28;20511;-56
2022/01/03 00:35:07;;;;;;;16.05;2.60;;;;;;;9.52;100.00;101012.16;5050773;28;20048;-55
2022/01/03 00:37:36;;;;;;;15.88;2.47;;;;;;;9.53;100.00;101007.72;5052654;28;20503;-55
2022/01/03 00:40:05;;;;;;;20.90;2.35;;;;;;;9.57;100.00;100998.75;5052616;28;20072;-54
2022/01/03 00:42:33;;;;;;;24.00;3.20;;;;;;;9.50;100.00;100997.41;5052579;28;20140;-55
2022/01/03 00:45:03;;;;;;;18.90;2.35;;;;;;;9.50;100.00;101000.03;5052460;28;20055;-55
2022/01/03 00:47:34;;;;;;;17.60;2.33;;;;;;;9.52;100.00;101003.44;5052196;28;20048;-55
2022/01/03 00:50:05;;;;;;;17.02;3.67;;;;;;;9.50;100.00;101015.78;5052058;28;20381;-55
2022/01/03 00:52:33;;;;;;;22.17;4.07;;;;;;;9.51;100.00;101020.13;5051719;28;20136;-54
2022/01/03 00:55:01;;;;;;;19.10;2.53;;;;;;;9.47;100.00;101003.69;5052154;28;20072;-55
2022/01/03 00:57:44;;;;;;;17.30;2.50;;;;;;;9.47;100.00;101011.56;5052354;28;20060;-55
2022/01/03 01:00:13;;;;;;;22.63;3.35;;;;;;;9.46;100.00;101015.13;5052539;28;20041;-55
2022/01/03 01:02:51;;;;;;;21.83;3.40;;;;;;;9.46;100.00;101018.59;5050469;28;20045;-54
2022/01/03 01:05:21;;;;;;;13.85;2.35;;;;;;;9.53;100.00;101024.34;5049376;28;20049;-54
2022/01/03 01:07:54;;;;;;;20.98;3.22;;;;;;;9.50;100.00;101014.00;5052017;28;20403;-53
2022/01/03 01:10:23;;;;;;;18.73;2.17;;;;;;;9.48;100.00;101011.47;5052080;28;20064;-53
2022/01/03 01:12:51;;;;;;;14.35;2.63;;;;;;;9.49;100.00;101012.34;5052294;28;20504;-55
2022/01/03 01:15:19;;;;;;;18.67;3.55;;;;;;;9.45;100.00;101016.06;5051945;28;20121;-55
2022/01/03 01:17:49;;;;;;;22.95;3.15;;;;;;;9.45;100.00;101021.31;5051722;28;20049;-55
2022/01/03 01:20:20;;;;;;;23.05;3.72;;;;;;;9.44;100.00;101017.00;5048448;28;20052;-55
2022/01/03 01:22:48;;;;;;;16.83;2.88;;;;;;;9.46;100.00;101023.84;5049665;28;20045;-56
2022/01/03 01:27:45;;;;;;;19.42;3.13;;;;;;;9.48;100.00;101021.13;5052005;28;20404;-55
2022/01/03 01:28:15;;;;;;;18.85;2.50;;;;;;;9.41;100.00;101020.66;5051971;28;20049;-53
2022/01/03 01:30:44;;;;;;;20.17;2.85;;;;;;;9.46;100.00;101029.09;5051650;28;20067;-55
2022/01/03 01:33:15;;;;;;;27.08;4.18;;;;;;;9.45;100.00;101030.03;5050945;28;20592;-56
2022/01/03 01:36:07;;;;;;;17.92;2.60;;;;;;;9.38;100.00;101025.22;5049119;28;20128;-53
2022/01/03 01:38:36;;;;;;;21.33;2.70;;;;;;;9.35;100.00;101025.41;5050117;28;20045;-54
2022/01/03 01:41:06;;;;;;;20.23;3.25;;;;;;;9.32;100.00;101033.47;5051913;28;20068;-54
2022/01/03 01:43:37;;;;;;;15.82;2.50;;;;;;;9.43;100.00;101031.88;5051778;28;20052;-53
2022/01/03 01:46:09;;;;;;;19.17;2.67;;;;;;;9.36;100.00;101040.22;5051685;28;20037;-54
2022/01/03 01:48:40;;;;;;;15.35;2.58;;;;;;;9.37;100.00;101036.66;5051721;28;20045;-55
2022/01/03 01:51:10;;;;;;;18.33;3.80;;;;;;;9.33;100.00;101038.63;5049398;28;20037;-53
2022/01/03 01:53:42;;;;;;;17.83;2.67;;;;;;;9.33;100.00;101035.16;5048597;28;20040;-54
2022/01/03 01:56:16;;;;;;;19.90;2.47;;;;;;;9.33;100.00;101035.16;5051777;28;20053;-55
2022/01/03 01:59:07;;;;;;;18.27;2.72;;;;;;;9.30;100.00;101034.38;5050601;28;20056;-55
2022/01/03 02:01:43;;;;;;;24.40;2.80;;;;;;;9.35;100.00;101026.22;5046687;28;20118;-55
2022/01/03 02:04:27;;;;;;;14.20;2.45;;;;;;;9.37;100.00;101034.88;5055213;28;20053;-53
2022/01/03 02:06:57;;;;;;;18.33;3.42;;;;;;;9.35;100.00;101036.72;5054001;28;20060;-53
2022/01/03 02:09:35;;;;;;;14.45;2.45;;;;;;;9.34;100.00;101028.94;5055081;28;20048;-52
2022/01/03 02:12:06;;;;;;;18.70;2.95;;;;;;;9.30;100.00;101033.53;5053163;28;20527;-55
2022/01/03 02:14:37;;;;;;;14.48;2.25;;;;;;;9.35;100.00;101043.78;5052906;28;20059;-54
2022/01/03 02:17:05;;;;;;;24.15;3.85;;;;;;;9.39;100.00;101047.91;5054514;28;20041;-53
2022/01/03 02:19:36;;;;;;;20.92;3.08;;;;;;;9.33;100.00;101046.50;5052255;28;20068;-53
2022/01/03 02:22:05;;;;;;;16.40;2.70;;;;;;;9.35;100.00;101038.53;5053919;28;20045;-54
2022/01/03 02:24:33;;;;;;;20.90;2.45;;;;;;;9.34;100.00;101050.81;5055095;28;20583;-53
2022/01/03 02:27:02;;;;;;;14.65;3.25;;;;;;;9.33;100.00;101046.50;5055240;28;20548;-54
2022/01/03 02:29:30;;;;;;;21.73;3.17;;;;;;;9.29;100.00;101042.34;5054936;28;20102;-55
2022/01/03 02:31:58;;;;;;;18.83;2.67;;;;;;;9.27;100.00;101055.56;5054783;28;20069;-55
2022/01/03 02:34:29;;;;;;;18.88;2.67;;;;;;;9.32;100.00;101057.06;5055045;28;20048;-55
2022/01/03 02:36:59;;;;;;;18.10;2.50;;;;;;;9.36;100.00;101051.56;5055014;28;20135;-54
2022/01/03 02:39:27;;;;;;;16.70;2.75;;;;;;;9.41;100.00;101061.81;5050028;28;20072;-54
2022/01/03 02:41:55;;;;;;;19.35;2.22;;;;;;;9.40;100.00;101075.88;5052363;28;20045;-53
2022/01/03 02:44:23;;;;;;;19.35;3.08;;;;;;;9.36;100.00;101061.22;5054665;28;20044;-53
2022/01/03 02:46:51;;;;;;;14.70;3.13;;;;;;;9.40;100.00;101060.13;5054630;28;20135;-55
2022/01/03 02:49:20;;;;;;;17.17;2.28;;;;;;;9.36;100.00;101053.34;5054570;28;20373;-55
2022/01/03 02:51:48;;;;;;;15.20;2.45;;;;;;;9.31;100.00;101050.97;5054117;28;20447;-54
2022/01/03 02:54:17;;;;;;;19.20;2.58;;;;;;;9.27;100.00;101058.19;5051915;28;20436;-54
2022/01/03 02:56:46;;;;;;;27.23;4.05;;;;;;;9.31;100.00;101053.59;5052428;28;20068;-54
2022/01/03 02:59:15;;;;;;;20.05;2.47;;;;;;;9.29;100.00;101048.44;5054488;28;20099;-54
2022/01/03 03:01:43;;;;;;;18.45;2.75;;;;;;;9.22;100.00;101051.50;5054427;28;20099;-55
2022/01/03 03:04:12;;;;;;;16.50;2.30;;;;;;;9.21;100.00;101050.63;5054310;28;20073;-54
2022/01/03 03:06:40;;;;;;;16.20;2.80;;;;;;;9.19;100.00;101057.78;5050947;28;20045;-55
2022/01/03 03:09:08;;;;;;;19.67;3.17;;;;;;;9.19;100.00;101060.41;5052656;28;20111;-54
2022/01/03 03:11:39;;;;;;;19.02;2.75;;;;;;;9.22;100.00;101067.25;5054055;28;20053;-53
2022/01/03 03:14:07;;;;;;;12.50;2.70;;;;;;;9.27;100.00;101050.31;5053683;28;20056;-54
2022/01/03 03:16:36;;;;;;;18.35;3.22;;;;;;;9.33;100.00;101050.91;5054042;28;20095;-53
2022/01/03 03:19:04;;;;;;;22.70;3.03;;;;;;;9.24;100.00;101045.25;5053790;28;20049;-54
2022/01/03 03:21:32;;;;;;;20.88;3.47;;;;;;;9.21;100.00;101050.63;5051190;28;20045;-49
2022/01/03 03:24:00;;;;;;;23.20;3.53;;;;;;;9.24;100.00;101053.13;5051887;28;20041;-52
2022/01/03 03:26:28;;;;;;;20.70;2.72;;;;;;;9.26;100.00;101042.53;5051669;28;20068;-50
2022/01/03 03:28:57;;;;;;;20.25;2.92;;;;;;;9.20;100.00;101053.34;5050695;28;20041;-51
2022/01/03 03:31:26;;;;;;;20.02;2.78;;;;;;;9.21;100.00;101055.88;5052998;28;20056;-50
2022/01/03 03:33:54;;;;;;;14.65;2.58;;;;;;;9.24;100.00;101062.75;5053710;28;20049;-53
2022/01/03 03:36:22;;;;;;;22.38;2.85;;;;;;;9.19;100.00;101052.53;5054020;28;20071;-52
2022/01/03 03:38:50;;;;;;;20.00;3.15;;;;;;;9.19;100.00;101057.78;5052588;28;20123;-52
2022/01/03 03:41:18;;;;;;;15.23;2.65;;;;;;;9.22;100.00;101052.34;5050906;28;20053;-53
2022/01/03 03:43:46;;;;;;;15.38;2.90;;;;;;;9.19;100.00;101055.16;5053113;28;20087;-51
2022/01/03 03:46:15;;;;;;;18.95;2.72;;;;;;;9.19;100.00;101057.78;5053684;28;20041;-52
2022/01/03 03:48:43;;;;;;;20.02;3.92;;;;;;;9.14;100.00;101058.00;5053469;28;20045;-55
2022/01/03 03:51:12;;;;;;;16.90;2.53;;;;;;;9.16;100.00;101057.09;5053780;28;20048;-52
2022/01/03 03:53:40;;;;;;;16.67;3.72;;;;;;;9.19;100.00;101059.53;5053428;28;20048;-55
2022/01/03 03:56:08;;;;;;;17.98;2.75;;;;;;;9.18;100.00;101063.09;5053424;28;20049;-50
2022/01/03 03:58:36;;;;;;;23.23;3.30;;;;;;;9.14;100.00;101075.53;5053010;28;20163;-49
2022/01/03 04:01:04;;;;;;;17.98;2.92;;;;;;;9.16;100.00;101062.31;5052423;28;20740;-49
2022/01/03 04:03:39;;;;;;;12.95;2.25;;;;;;;9.13;100.00;101060.72;5050145;28;20063;-48
2022/01/03 04:06:07;;;;;;;18.92;3.03;;;;;;;9.14;100.00;101058.00;5051507;28;20568;-54
2022/01/03 04:08:35;;;;;;;15.73;2.50;;;;;;;9.17;100.00;101058.78;5051149;28;20057;-53
2022/01/03 04:11:03;;;;;;;19.25;2.88;;;;;;;9.15;100.00;101051.00;5053032;28;20499;-53
2022/01/03 04:13:31;;;;;;;20.58;3.25;;;;;;;9.17;100.00;101053.53;5052978;28;20033;-54
2022/01/03 04:16:00;;;;;;;22.63;3.28;;;;;;;9.16;100.00;101055.28;5050781;28;20049;-54
2022/01/03 04:18:28;;;;;;;20.15;3.22;;;;;;;9.14;100.00;101054.53;5050092;28;20080;-53
2022/01/03 04:20:58;;;;;;;18.98;3.20;;;;;;;9.13;100.00;101040.59;5052159;28;20052;-51
2022/01/03 04:23:26;;;;;;;21.23;3.42;;;;;;;9.20;100.00;101048.09;5053004;28;20091;-52
2022/01/03 04:25:54;;;;;;;15.75;3.13;;;;;;;9.19;100.00;101049.03;5051860;28;20484;-52
2022/01/03 04:28:22;;;;;;;22.27;3.15;;;;;;;9.16;100.00;101054.47;5052861;28;20384;-50
2022/01/03 04:30:51;;;;;;;17.83;3.75;;;;;;;9.15;100.00;101048.38;5052486;28;20057;-49
2022/01/03 04:33:19;;;;;;;17.98;3.65;;;;;;;9.21;100.00;101037.53;5052935;28;20545;-50
2022/01/03 04:35:47;;;;;;;16.70;3.35;;;;;;;9.16;100.00;101046.59;5052828;28;20044;-47
2022/01/03 04:38:16;;;;;;;17.05;3.58;;;;;;;9.15;100.00;101048.38;5052639;28;20523;-51
2022/01/03 04:40:44;;;;;;;22.85;3.63;;;;;;;9.25;100.00;101040.81;5052432;28;20124;-50
2022/01/03 04:43:12;;;;;;;17.88;3.85;;;;;;;9.17;100.00;101038.63;5052822;28;20083;-50
2022/01/03 04:45:40;;;;;;;15.23;3.20;;;;;;;9.24;100.00;101034.75;5052431;28;20162;-48
2022/01/03 04:48:09;;;;;;;16.70;3.55;;;;;;;9.23;100.00;101034.81;5052421;28;20045;-48
2022/01/03 04:50:37;;;;;;;22.90;3.25;;;;;;;9.27;100.00;101028.44;5052303;28;20064;-51
2022/01/03 04:53:05;;;;;;;20.33;3.15;;;;;;;9.20;100.00;101027.94;5051073;28;20044;-52
2022/01/03 04:55:34;;;;;;;30.42;4.60;;;;;;;9.23;100.00;101026.94;5052419;28;20095;-49
2022/01/03 04:58:02;;;;;;;22.73;3.50;;;;;;;9.23;100.00;101019.91;5052246;28;20430;-52
2022/01/03 05:00:30;;;;;;;15.68;3.60;;;;;;;9.16;100.00;101017.72;5051054;28;20071;-47
2022/01/03 05:02:59;;;;;;;21.27;3.72;;;;;;;9.26;100.00;101019.75;5049742;28;20132;-49
2022/01/03 05:05:27;;;;;;;19.25;3.22;;;;;;;9.13;100.00;101016.97;5048933;28;20515;-50
2022/01/03 05:07:55;;;;;;;17.33;3.90;;;;;;;9.13;100.00;101016.97;5052159;28;20080;-50
2022/01/03 05:10:23;;;;;;;25.05;4.82;;;;;;;9.15;100.00;101016.88;5052150;28;20060;-48
2022/01/03 05:12:53;;;;;;;21.13;3.20;;;;;;;9.13;100.00;101026.59;5052145;28;20041;-49
2022/01/03 05:15:21;;;;;;;24.60;4.80;;;;;;;9.18;100.00;101021.94;5051895;28;20128;-53
2022/01/03 05:17:49;;;;;;;20.30;3.22;;;;;;;9.17;100.00;101019.41;5051473;28;20557;-51
2022/01/03 05:20:17;;;;;;;20.42;3.85;;;;;;;9.18;100.00;101029.81;5052035;28;20107;-52
2022/01/03 05:22:46;;;;;;;16.42;2.92;;;;;;;9.16;100.00;101026.44;5051845;28;20059;-53
2022/01/03 05:25:14;;;;;;;23.73;3.53;;;;;;;9.18;100.00;101024.56;5052188;28;20756;-52
2022/01/03 05:27:42;;;;;;;16.20;2.97;;;;;;;9.23;100.00;101024.31;5051738;28;20041;-54
2022/01/03 05:30:13;;;;;;;18.15;3.17;;;;;;;9.19;100.00;101021.03;5051849;28;20546;-52
2022/01/03 05:32:41;;;;;;;17.58;2.97;;;;;;;9.22;100.00;101015.59;5047987;28;20650;-53
2022/01/03 05:35:10;;;;;;;16.20;3.58;;;;;;;9.23;100.00;101014.66;5049207;28;20111;-51
2022/01/03 05:37:38;;;;;;;23.13;3.70;;;;;;;9.23;100.00;101000.69;5053714;28;20118;-53
2022/01/03 05:40:07;;;;;;;22.20;3.60;;;;;;;9.17;100.00;101015.00;5055993;28;20102;-52
2022/01/03 05:42:35;;;;;;;19.20;3.85;;;;;;;9.21;100.00;101008.66;5055878;28;20142;-53
2022/01/03 05:45:04;;;;;;;17.52;3.05;;;;;;;9.24;100.00;101013.75;5055926;28;20045;-53
2022/01/03 05:47:33;;;;;;;20.80;3.63;;;;;;;9.22;100.00;101010.34;5055938;28;20500;-53
2022/01/03 05:50:02;;;;;;;23.33;3.55;;;;;;;9.22;100.00;101012.13;5054413;28;20072;-51
2022/01/03 05:52:30;;;;;;;16.05;3.63;;;;;;;9.19;100.00;101004.41;5052023;28;20120;-52
2022/01/03 05:54:58;;;;;;;16.95;2.92;;;;;;;9.19;100.00;101001.78;5054690;28;20091;-52
2022/01/03 05:57:27;;;;;;;15.95;3.60;;;;;;;9.22;100.00;100999.03;5055260;28;20060;-54
2022/01/03 05:59:55;;;;;;;21.17;2.75;;;;;;;9.29;100.00;101003.81;5052959;28;20053;-56
2022/01/03 06:02:24;;;;;;;20.42;3.55;;;;;;;9.23;100.00;101001.56;5052896;28;20059;-55
2022/01/03 06:04:57;;;;;;;19.17;3.83;;;;;;;9.27;100.00;100992.56;5055393;28;20045;-53
2022/01/03 06:07:25;;;;;;;21.55;3.47;;;;;;;9.22;100.00;100994.59;5052345;28;20053;-54
2022/01/03 06:09:53;;;;;;;20.30;4.53;;;;;;;9.21;100.00;100992.91;5053232;28;20052;-55
2022/01/03 06:12:21;;;;;;;15.98;2.90;;;;;;;9.24;100.00;100992.75;5055404;28;20041;-54
2022/01/03 06:14:49;;;;;;;19.58;3.20;;;;;;;9.25;100.00;100994.41;5055200;28;20516;-54
2022/01/03 06:17:18;;;;;;;20.90;3.70;;;;;;;9.19;100.00;100994.78;5055330;28;20041;-51
2022/01/03 06:19:46;;;;;;;22.00;4.25;;;;;;;9.23;100.00;100984.94;5055015;28;20556;-55
2022/01/03 06:22:17;;;;;;;19.17;3.38;;;;;;;9.25;100.00;100989.16;5055261;28;20102;-55
2022/01/03 06:24:47;;;;;;;16.27;3.28;;;;;;;9.26;100.00;100984.78;5054945;28;20045;-54
2022/01/03 06:27:16;;;;;;;18.15;3.13;;;;;;;9.25;100.00;100977.84;5054895;28;20381;-53
2022/01/03 06:29:44;;;;;;;17.50;2.85;;;;;;;9.26;100.00;100971.66;5054622;28;20055;-54
2022/01/03 06:32:12;;;;;;;18.50;4.40;;;;;;;9.24;100.00;100974.38;5054622;28;20053;-54
2022/01/03 06:34:40;;;;;;;16.58;3.28;;;;;;;9.23;100.00;100970.06;5054748;28;20087;-53
2022/01/03 06:37:08;;;;;;;17.63;3.13;;;;;;;9.18;100.00;100972.09;5054902;28;20048;-55
2022/01/03 06:39:38;;;;;;;17.35;3.08;;;;;;;9.22;100.00;100970.16;5054858;28;20720;-54
2022/01/03 06:42:07;;;;;;;16.90;2.65;;;;;;;9.24;100.00;100963.88;5054874;28;20055;-54
2022/01/03 06:44:35;;;;;;;18.13;3.85;;;;;;;9.21;100.00;100958.78;5054793;28;20523;-55
2022/01/03 06:47:03;;;;;;;24.23;3.67;;;;;;;9.21;100.00;100964.03;5054767;28;20536;-53
2022/01/03 06:49:31;;;;;;;20.85;3.15;;;;;;;9.24;100.00;100970.91;5053390;28;20131;-53
2022/01/03 06:51:59;;;;;;;19.83;3.53;;;;;;;9.26;100.00;100969.03;5054682;28;20040;-55
2022/01/03 06:54:27;;;;;;;22.45;3.67;;;;;;;9.22;100.00;100967.53;5054495;28;20041;-54
2022/01/03 06:56:57;;;;;;;21.42;3.25;;;;;;;9.29;100.00;100974.09;5052764;28;20041;-55
2022/01/03 06:59:29;;;;;;;16.52;2.95;;;;;;;9.30;100.00;100973.19;5051878;28;20048;-53
2022/01/03 07:01:57;;;;;;;19.20;3.78;;;;;;;9.32;100.00;100976.53;5053912;28;20131;-55
2022/01/03 07:04:26;;;;;;;19.23;3.78;;;;;;;9.24;100.00;100977.00;5054277;28;20409;-54
2022/01/03 07:06:55;;;;;;;13.77;3.10;;;;;;;9.27;100.00;100984.69;5054430;28;20049;-55
2022/01/03 07:09:23;;;;;;;15.00;3.88;;;;;;;9.27;100.00;100986.47;5054214;28;20110;-55
2022/01/03 07:11:51;;;;;;;19.83;3.20;;;;;;;9.32;100.00;100973.09;5054222;28;20500;-53
2022/01/03 07:19:55;;;;;;;17.25;2.55;;;;;;;9.34;100.00;100963.34;5052073;28;20049;-55
2022/01/03 07:22:24;;;;;;;18.05;2.60;;;;;;;9.32;100.00;100955.56;5050103;28;20049;-55
2022/01/03 07:24:53;;;;;;;22.60;3.08;;;;;;;9.29;100.00;100960.97;5053650;28;20040;-55
2022/01/03 07:27:21;;;;;;;15.13;2.88;;;;;;;9.30;100.00;100960.88;5054006;28;20118;-55
2022/01/03 07:29:51;;;;;;;17.88;3.05;;;;;;;9.27;100.00;100961.06;5053734;28;20060;-55
2022/01/03 07:32:19;;;;;;;15.88;2.88;;;;;;;9.31;100.00;100966.97;5053704;28;20087;-55
2022/01/03 07:34:47;;;;;;;14.15;2.58;;;;;;;9.29;100.00;100956.56;5053769;28;20037;-55
2022/01/03 07:37:15;;;;;;;15.13;2.97;;;;;;;9.30;100.00;100950.41;5053671;28;20044;-54
2022/01/03 07:39:44;;;;;;;16.27;3.38;;;;;;;9.26;100.00;100943.63;5053767;28;20053;-55
2022/01/03 07:42:12;;;;;;;18.27;3.15;;;;;;;9.25;100.00;100959.47;5052991;28;20071;-54
2022/01/03 07:44:40;;;;;;;19.45;3.30;;;;;;;9.32;100.00;100957.34;5050687;28;20052;-54
2022/01/03 07:47:09;;;;;;;15.48;2.85;;;;;;;9.30;100.00;100966.13;5051217;28;20071;-54
2022/01/03 07:49:38;;;;;;;16.58;3.10;;;;;;;9.26;100.00;100969.88;5051531;28;20076;-55
2022/01/03 07:52:06;;;;;;;17.30;3.05;;;;;;;9.26;100.00;100974.28;5050548;28;20041;-55
2022/01/03 07:54:34;;;;;;;11.40;3.28;;;;;;;9.29;100.00;100977.56;5053282;28;20052;-54
2022/01/03 07:57:03;;;;;;;16.75;2.67;;;;;;;9.26;100.00;100984.78;5053469;28;20036;-55
2022/01/03 07:59:31;;;;;;;15.70;3.30;;;;;;;9.28;100.00;100985.53;5053275;28;20542;-55
2022/01/03 08:01:59;;;;;;;24.00;3.72;;;;;;;9.30;100.00;100991.56;5053459;28;20037;-54
2022/01/03 08:04:30;;;;;;;16.95;3.28;;;;;;;9.27;100.00;100986.47;5053342;28;20124;-54
2022/01/03 08:06:59;;;;;;;18.98;3.72;;;;;;;9.29;100.00;100985.44;5053109;28;20052;-55
2022/01/03 08:09:27;;;;;;;21.00;3.63;;;;;;;9.28;100.00;100991.66;5052940;28;20451;-55
2022/01/03 08:11:55;;;;;;;16.52;3.00;;;;;;;9.28;100.00;100991.66;5053084;28;20064;-55
2022/01/03 08:14:23;;;;;;;16.58;3.40;;;;;;;9.26;100.00;100993.50;5052815;28;20041;-54
2022/01/03 08:16:51;;;;;;;13.85;2.85;;;;;;;9.32;100.00;100994.09;5052851;28;20099;-53
2022/01/03 08:19:19;;;;;;;16.70;3.15;;;;;;;9.26;100.00;101001.38;5052806;28;20047;-55
2022/01/03 08:21:49;;;;;;;15.38;2.60;;;;;;;9.27;100.00;100997.81;5052730;28;20045;-55
2022/01/03 08:24:17;;;;;;;18.27;3.38;;;;;;;9.33;100.00;100990.53;5052947;28;20044;-55
2022/01/03 08:26:46;;;;;;;14.57;2.72;;;;;;;9.38;100.00;100991.09;5052693;28;20049;-56
2022/01/03 08:29:14;;;;;;;15.35;2.80;;;;;;;9.30;100.00;100997.63;5052813;28;20516;-55
2022/01/03 08:31:42;;;;;;;13.98;2.90;;;;;;;9.26;100.00;100996.13;5052514;28;20638;-56
2022/01/03 08:34:10;;;;;;;22.15;3.40;;;;;;;9.24;100.00;100995.38;5052666;28;20445;-55
2022/01/03 08:36:38;;;;;;;12.00;2.55;;;;;;;9.33;100.00;101004.50;5052548;28;20106;-55
2022/01/03 08:39:09;;;;;;;14.85;2.88;;;;;;;9.30;100.00;100996.81;5052307;28;20037;-51
2022/01/03 08:41:37;;;;;;;11.10;2.72;;;;;;;9.25;100.00;100999.66;5049872;28;20056;-55
2022/01/03 08:44:06;;;;;;;18.77;3.30;;;;;;;9.25;100.00;100988.34;5049616;28;20076;-55
2022/01/03 08:46:34;;;;;;;14.38;2.53;;;;;;;9.23;100.00;100985.81;5051545;28;20497;-53
2022/01/03 08:49:02;;;;;;;15.57;3.40;;;;;;;9.32;100.00;100983.59;5049488;28;20067;-56
2022/01/03 08:51:30;;;;;;;15.98;3.35;;;;;;;9.29;100.00;100987.22;5050114;28;20451;-55
2022/01/03 08:53:59;;;;;;;16.45;3.13;;;;;;;9.35;100.00;100986.84;5052379;28;20045;-55
2022/01/03 08:56:28;;;;;;;19.45;3.00;;;;;;;9.37;100.00;100984.19;5052208;28;20049;-55
2022/01/03 08:58:56;;;;;;;16.08;3.08;;;;;;;9.37;100.00;100973.69;5052140;28;20056;-56
2022/01/03 09:01:24;;;;;;;15.52;2.83;;;;;;;9.32;100.00;100978.34;5050484;28;20095;-55
2022/01/03 09:03:53;;;;;;;13.07;3.38;;;;;;;9.27;100.00;100971.56;5049370;28;20156;-53
2022/01/03 09:06:21;;;;;;;16.75;3.45;;;;;;;9.34;100.00;100976.44;5050913;28;20103;-55
2022/01/03 09:08:50;;;;;;;14.35;3.47;;;;;;;9.36;100.00;100980.69;5050712;28;20045;-55
2022/01/03 09:11:18;;;;;;;15.90;2.85;;;;;;;9.42;100.00;100982.09;5051740;28;20060;-56
2022/01/03 09:16:41;;;;;;;11.32;2.70;;;;;;;9.42;100.00;100985.59;5148211;27;1287941;-61
2022/01/03 09:19:09;;;;;;;17.45;3.85;;;;;;;9.46;100.00;100988.88;5171924;27;20075;-57
2022/01/03 09:21:37;;;;;;;14.63;3.40;;;;;;;9.47;100.00;100985.31;5171055;27;20094;-57
2022/01/03 09:24:21;;;;;;;15.20;2.97;;;;;;;9.44;100.00;100980.25;5169129;27;20489;-57
2022/01/03 09:29:36;;;;;;;17.85;3.25;;;;;;;9.56;100.00;100976.91;5152919;27;20122;-57
2022/01/03 09:32:06;;;;;;;13.68;2.45;;;;;;;9.55;100.00;100980.47;5171593;27;20070;-57
2022/01/03 09:34:35;;;;;;;17.70;3.45;;;;;;;9.58;99.36;100979.44;5168965;27;20042;-57
2022/01/03 09:37:05;;;;;;;15.00;2.80;;;;;;;9.59;99.17;100976.72;5170219;27;20042;-57
2022/01/03 09:39:33;;;;;;;17.23;2.90;;;;;;;9.62;98.93;100965.19;5171606;27;20050;-57
2022/01/03 09:42:06;;;;;;;17.23;3.13;;;;;;;9.60;99.37;100973.16;5171564;27;20449;-57
2022/01/03 09:44:36;;;;;;;15.23;3.05;;;;;;;9.64;98.77;100977.28;5169108;27;20057;-57
2022/01/03 09:47:06;;;;;;;13.30;3.10;;;;;;;9.62;98.90;100975.69;5167714;27;20042;-57
2022/01/03 09:49:37;;;;;;;16.27;3.05;;;;;;;9.59;98.77;100981.13;5171572;27;20046;-57
2022/01/03 09:52:08;;;;;;;18.13;3.47;;;;;;;9.66;98.43;100973.75;5171435;27;20504;-57
2022/01/03 09:54:37;;;;;;;14.18;2.75;;;;;;;9.66;98.65;100968.50;5171331;27;20057;-57
2022/01/03 09:57:06;;;;;;;15.40;2.80;;;;;;;9.63;99.08;100970.34;5171338;27;20042;-57
2022/01/03 09:59:36;;;;;;;17.33;3.58;;;;;;;9.63;99.08;100964.25;5170793;27;20064;-57
2022/01/03 10:02:06;;;;;;;17.30;2.83;;;;;;;9.67;99.19;100967.53;5170425;27;20054;-57
2022/01/03 10:04:37;;;;;;;17.23;2.80;;;;;;;9.68;99.39;100956.09;5171019;27;20044;-57
2022/01/03 10:07:09;;;;;;;16.90;3.53;;;;;;;9.66;98.94;100950.94;5168246;27;20046;-57
2022/01/03 10:09:38;;;;;;;19.63;3.22;;;;;;;9.71;98.35;100950.69;5166784;27;20050;-57
2022/01/03 10:12:11;;;;;;;16.27;3.10;;;;;;;9.67;98.61;100952.63;5170959;27;20054;-58
2022/01/03 10:14:39;;;;;;;14.70;2.83;;;;;;;9.69;99.33;100956.00;5170747;27;20469;-57
2022/01/03 10:17:10;;;;;;;16.73;3.22;;;;;;;9.63;98.03;100951.97;5170878;27;20042;-57
2022/01/03 10:19:55;;;;;;;16.92;3.00;;;;;;;9.64;98.54;100958.91;5167975;27;20058;-57
2022/01/03 10:22:26;;;;;;;16.25;3.22;;;;;;;9.70;98.53;100956.88;5167627;27;20378;-57
2022/01/03 10:24:55;;;;;;;15.23;3.28;;;;;;;9.74;97.97;100958.38;5170715;27;20069;-57
2022/01/03 10:27:24;;;;;;;15.05;2.92;;;;;;;9.80;98.30;100963.25;5158675;27;20051;-57
2022/01/03 10:29:55;;;;;;;13.25;2.85;;;;;;;9.81;97.80;100959.69;5152703;27;20509;-57
2022/01/03 10:32:29;;;;;;;14.43;3.33;;;;;;;9.83;96.91;100955.19;5155181;27;20042;-57
2022/01/03 10:34:59;;;;;;;16.70;3.20;;;;;;;9.78;97.06;100938.88;5156353;27;20389;-57
2022/01/03 10:37:37;;;;;;;12.20;2.53;;;;;;;9.81;95.83;100943.94;5156527;27;20133;-57
2022/01/03 10:40:20;;;;;;;17.45;3.95;;;;;;;9.90;96.10;100947.78;5156924;27;20042;-57
2022/01/03 10:42:49;;;;;;;14.27;3.13;;;;;;;9.95;96.92;100945.72;5156395;27;20496;-57
2022/01/03 10:45:30;;;;;;;11.27;2.78;;;;;;;10.04;96.46;100944.31;5156426;27;20095;-57
2022/01/03 10:48:01;;;;;;;17.10;3.50;;;;;;;10.13;95.88;100941.13;5156310;27;20042;-57
2022/01/03 10:50:29;;;;;;;14.95;3.38;;;;;;;10.15;96.00;100936.63;5153994;27;20089;-57
2022/01/03 10:53:00;;;;;;;19.00;3.88;;;;;;;10.29;95.93;100930.50;5151868;27;20046;-57
2022/01/03 10:55:33;;;;;;;16.77;3.47;;;;;;;10.27;95.07;100935.03;5155412;27;20096;-58
2022/01/03 10:58:03;;;;;;;18.55;3.13;;;;;;;10.31;94.36;100929.47;5156501;27;20393;-57
2022/01/03 11:00:33;;;;;;;19.45;4.88;;;;;;;10.30;94.43;100930.38;5156001;27;20046;-58
2022/01/03 11:03:19;;;;;;;18.45;3.17;;;;;;;10.36;94.96;100933.63;5153938;27;20430;-58
2022/01/03 11:05:52;;;;;;;14.38;2.92;;;;;;;10.31;94.11;100928.63;5151889;27;20050;-58
2022/01/03 11:11:14;;;;;;;15.75;2.95;;;;;;;10.21;94.30;100917.84;5152147;27;20054;-57
2022/01/03 11:13:43;;;;;;;18.55;3.20;;;;;;;10.23;94.52;100912.50;5153926;27;20070;-57
2022/01/03 11:16:13;;;;;;;11.80;2.55;;;;;;;10.23;94.92;100910.69;5154849;27;20103;-57
2022/01/03 11:18:46;;;;;;;13.13;3.83;;;;;;;10.24;94.90;100914.16;5155668;27;20046;-57
2022/01/03 11:21:17;;;;;;;18.20;3.05;;;;;;;10.22;94.72;100908.16;5155925;27;20053;-57
2022/01/03 11:23:48;;;;;;;17.13;3.42;;;;;;;10.25;95.59;100906.19;5155650;27;20050;-58
2022/01/03 11:26:17;;;;;;;16.40;2.97;;;;;;;10.35;95.00;100890.72;5155792;27;20043;-59
2022/01/03 11:28:47;;;;;;;20.40;3.30;;;;;;;10.30;95.20;100906.72;5155371;27;20043;-58
2022/01/03 11:31:18;;;;;;;14.80;4.07;;;;;;;10.48;94.40;100894.25;5155540;27;20103;-57
2022/01/03 11:33:50;;;;;;;17.60;3.20;;;;;;;10.57;93.82;100903.34;5136863;27;20081;-57
2022/01/03 11:36:40;;;;;;;15.48;2.83;;;;;;;10.64;94.12;100896.72;5155429;27;20434;-57
2022/01/03 11:39:10;;;;;;;20.23;3.45;;;;;;;10.63;93.57;100895.06;5154382;27;20030;-57
2022/01/03 11:41:40;;;;;;;14.85;3.05;;;;;;;10.70;93.37;100879.69;5155210;27;20050;-57
2022/01/03 11:44:11;;;;;;;18.77;3.15;;;;;;;10.67;93.17;100885.16;5155408;27;20429;-57